sensor_id;sensor_type;location;lat;lon;timestamp;P1;durP1;ratioP1;P2;durP2;ratioP2
77938;SDS011;67136;47.546;21.630;2023-05-10T00:03:36;9.00;;;2.47;;
77938;SDS011;67136;47.546;21.630;2023-05-10T00:07:07;3.85;;;2.50;;
77938;SDS011;67136;47.546;21.630;2023-05-10T00:10:18;4.47;;;2.40;;
77938;SDS011;67136;47.546;21.630;2023-05-10T00:13:39;6.03;;;2.60;;
77938;SDS011;67136;47.546;21.630;2023-05-10T00:16:52;5.15;;;2.50;;
77938;SDS011;67136;47.546;21.630;2023-05-10T00:20:14;3.58;;;2.25;;
77938;SDS011;67136;47.546;21.630;2023-05-10T00:23:32;4.43;;;2.40;;
77938;SDS011;67136;47.546;21.630;2023-05-10T00:26:57;7.78;;;2.53;;
77938;SDS011;67136;47.546;21.630;2023-05-10T00:34:14;4.87;;;2.60;;
77938;SDS011;67136;47.546;21.630;2023-05-10T00:38:00;3.37;;;2.35;;
77938;SDS011;67136;47.546;21.630;2023-05-10T00:41:14;5.45;;;2.40;;
77938;SDS011;67136;47.546;21.630;2023-05-10T00:44:44;6.10;;;2.50;;
77938;SDS011;67136;47.546;21.630;2023-05-10T00:47:54;4.83;;;2.37;;
77938;SDS011;67136;47.546;21.630;2023-05-10T00:51:09;4.75;;;2.95;;
77938;SDS011;67136;47.546;21.630;2023-05-10T00:58:39;5.40;;;2.58;;
77938;SDS011;67136;47.546;21.630;2023-05-10T01:02:06;3.75;;;2.50;;
77938;SDS011;67136;47.546;21.630;2023-05-10T01:05:15;4.17;;;2.50;;
77938;SDS011;67136;47.546;21.630;2023-05-10T01:08:26;5.72;;;2.33;;
77938;SDS011;67136;47.546;21.630;2023-05-10T01:12:06;4.37;;;2.62;;
77938;SDS011;67136;47.546;21.630;2023-05-10T01:15:28;7.15;;;2.40;;
77938;SDS011;67136;47.546;21.630;2023-05-10T01:19:36;8.30;;;2.85;;
77938;SDS011;67136;47.546;21.630;2023-05-10T01:30:22;4.00;;;2.60;;
77938;SDS011;67136;47.546;21.630;2023-05-10T01:33:55;3.80;;;2.53;;
77938;SDS011;67136;47.546;21.630;2023-05-10T01:42:17;5.07;;;2.67;;
77938;SDS011;67136;47.546;21.630;2023-05-10T01:49:29;4.32;;;2.87;;
77938;SDS011;67136;47.546;21.630;2023-05-10T01:53:03;4.95;;;2.67;;
77938;SDS011;67136;47.546;21.630;2023-05-10T01:56:36;4.62;;;3.05;;
77938;SDS011;67136;47.546;21.630;2023-05-10T02:00:18;3.20;;;2.30;;
77938;SDS011;67136;47.546;21.630;2023-05-10T02:04:35;4.65;;;2.50;;
77938;SDS011;67136;47.546;21.630;2023-05-10T02:11:43;3.78;;;2.80;;
77938;SDS011;67136;47.546;21.630;2023-05-10T02:15:30;6.43;;;2.70;;
77938;SDS011;67136;47.546;21.630;2023-05-10T02:18:46;6.00;;;2.97;;
77938;SDS011;67136;47.546;21.630;2023-05-10T02:23:07;4.05;;;2.90;;
77938;SDS011;67136;47.546;21.630;2023-05-10T02:26:28;7.95;;;2.95;;
77938;SDS011;67136;47.546;21.630;2023-05-10T02:29:51;8.65;;;2.95;;
77938;SDS011;67136;47.546;21.630;2023-05-10T02:33:41;6.87;;;3.80;;
77938;SDS011;67136;47.546;21.630;2023-05-10T02:36:58;6.93;;;2.93;;
77938;SDS011;67136;47.546;21.630;2023-05-10T02:40:35;6.45;;;3.15;;
77938;SDS011;67136;47.546;21.630;2023-05-10T02:44:19;5.32;;;2.78;;
77938;SDS011;67136;47.546;21.630;2023-05-10T02:47:42;6.43;;;3.05;;
77938;SDS011;67136;47.546;21.630;2023-05-10T02:51:00;7.33;;;2.90;;
77938;SDS011;67136;47.546;21.630;2023-05-10T02:54:24;5.30;;;3.10;;
77938;SDS011;67136;47.546;21.630;2023-05-10T02:58:00;6.50;;;2.87;;
77938;SDS011;67136;47.546;21.630;2023-05-10T03:01:24;4.32;;;3.25;;
77938;SDS011;67136;47.546;21.630;2023-05-10T03:04:48;6.95;;;3.78;;
77938;SDS011;67136;47.546;21.630;2023-05-10T03:22:49;7.43;;;3.45;;
77938;SDS011;67136;47.546;21.630;2023-05-10T03:26:24;5.77;;;3.37;;
77938;SDS011;67136;47.546;21.630;2023-05-10T03:30:06;5.30;;;3.40;;
77938;SDS011;67136;47.546;21.630;2023-05-10T03:33:26;5.80;;;3.40;;
77938;SDS011;67136;47.546;21.630;2023-05-10T03:36:39;6.30;;;3.60;;
77938;SDS011;67136;47.546;21.630;2023-05-10T03:40:18;5.10;;;3.33;;
77938;SDS011;67136;47.546;21.630;2023-05-10T03:43:57;7.20;;;2.83;;
77938;SDS011;67136;47.546;21.630;2023-05-10T03:47:19;6.67;;;3.00;;
77938;SDS011;67136;47.546;21.630;2023-05-10T03:50:37;5.40;;;3.30;;
77938;SDS011;67136;47.546;21.630;2023-05-10T03:54:31;4.90;;;3.05;;
77938;SDS011;67136;47.546;21.630;2023-05-10T03:57:57;4.80;;;2.85;;
77938;SDS011;67136;47.546;21.630;2023-05-10T04:01:29;6.47;;;3.97;;
77938;SDS011;67136;47.546;21.630;2023-05-10T04:04:57;4.83;;;2.83;;
77938;SDS011;67136;47.546;21.630;2023-05-10T04:08:56;3.75;;;2.80;;
77938;SDS011;67136;47.546;21.630;2023-05-10T04:12:08;5.87;;;3.12;;
77938;SDS011;67136;47.546;21.630;2023-05-10T04:15:16;7.07;;;3.53;;
77938;SDS011;67136;47.546;21.630;2023-05-10T04:18:35;4.83;;;3.50;;
77938;SDS011;67136;47.546;21.630;2023-05-10T04:21:53;4.50;;;3.10;;
77938;SDS011;67136;47.546;21.630;2023-05-10T04:25:38;7.45;;;3.55;;
77938;SDS011;67136;47.546;21.630;2023-05-10T04:32:40;7.10;;;3.12;;
77938;SDS011;67136;47.546;21.630;2023-05-10T04:36:24;5.27;;;3.33;;
77938;SDS011;67136;47.546;21.630;2023-05-10T04:39:43;4.53;;;3.07;;
77938;SDS011;67136;47.546;21.630;2023-05-10T04:43:06;10.38;;;3.45;;
77938;SDS011;67136;47.546;21.630;2023-05-10T04:46:25;8.15;;;2.75;;
77938;SDS011;67136;47.546;21.630;2023-05-10T04:49:37;5.18;;;3.08;;
77938;SDS011;67136;47.546;21.630;2023-05-10T04:56:54;4.40;;;2.80;;
77938;SDS011;67136;47.546;21.630;2023-05-10T05:00:40;4.68;;;2.78;;
77938;SDS011;67136;47.546;21.630;2023-05-10T05:04:12;6.12;;;2.90;;
77938;SDS011;67136;47.546;21.630;2023-05-10T05:07:35;7.97;;;3.05;;
77938;SDS011;67136;47.546;21.630;2023-05-10T05:10:44;5.53;;;3.03;;
77938;SDS011;67136;47.546;21.630;2023-05-10T05:14:11;11.57;;;3.47;;
77938;SDS011;67136;47.546;21.630;2023-05-10T05:17:16;5.85;;;3.22;;
77938;SDS011;67136;47.546;21.630;2023-05-10T05:20:32;4.82;;;3.05;;
77938;SDS011;67136;47.546;21.630;2023-05-10T05:23:41;4.80;;;3.20;;
77938;SDS011;67136;47.546;21.630;2023-05-10T05:26:46;4.63;;;2.90;;
77938;SDS011;67136;47.546;21.630;2023-05-10T05:29:57;4.90;;;3.00;;
77938;SDS011;67136;47.546;21.630;2023-05-10T05:33:09;5.90;;;3.08;;
77938;SDS011;67136;47.546;21.630;2023-05-10T05:36:25;7.22;;;2.75;;
77938;SDS011;67136;47.546;21.630;2023-05-10T05:39:35;8.98;;;2.72;;
77938;SDS011;67136;47.546;21.630;2023-05-10T05:43:04;7.87;;;3.67;;
77938;SDS011;67136;47.546;21.630;2023-05-10T05:46:09;8.20;;;2.97;;
77938;SDS011;67136;47.546;21.630;2023-05-10T05:49:13;8.30;;;3.05;;
77938;SDS011;67136;47.546;21.630;2023-05-10T05:52:31;5.78;;;2.85;;
77938;SDS011;67136;47.546;21.630;2023-05-10T05:55:55;7.70;;;3.00;;
77938;SDS011;67136;47.546;21.630;2023-05-10T05:59:05;4.17;;;2.80;;
77938;SDS011;67136;47.546;21.630;2023-05-10T06:02:18;5.57;;;2.50;;
77938;SDS011;67136;47.546;21.630;2023-05-10T06:05:25;4.87;;;3.05;;
77938;SDS011;67136;47.546;21.630;2023-05-10T06:08:38;4.43;;;2.45;;
77938;SDS011;67136;47.546;21.630;2023-05-10T06:11:55;6.50;;;3.10;;
77938;SDS011;67136;47.546;21.630;2023-05-10T06:15:06;4.83;;;2.73;;
77938;SDS011;67136;47.546;21.630;2023-05-10T06:18:25;4.63;;;2.80;;
77938;SDS011;67136;47.546;21.630;2023-05-10T06:21:42;8.15;;;2.47;;
77938;SDS011;67136;47.546;21.630;2023-05-10T06:25:10;3.22;;;2.42;;
77938;SDS011;67136;47.546;21.630;2023-05-10T06:28:30;5.35;;;2.65;;
77938;SDS011;67136;47.546;21.630;2023-05-10T06:31:50;4.15;;;2.50;;
77938;SDS011;67136;47.546;21.630;2023-05-10T06:35:08;3.60;;;2.37;;
77938;SDS011;67136;47.546;21.630;2023-05-10T06:38:27;4.78;;;2.60;;
77938;SDS011;67136;47.546;21.630;2023-05-10T06:42:39;4.70;;;2.40;;
77938;SDS011;67136;47.546;21.630;2023-05-10T06:45:49;3.65;;;2.70;;
77938;SDS011;67136;47.546;21.630;2023-05-10T06:49:18;4.37;;;2.35;;
77938;SDS011;67136;47.546;21.630;2023-05-10T06:52:38;8.87;;;2.60;;
77938;SDS011;67136;47.546;21.630;2023-05-10T06:55:45;3.47;;;2.30;;
77938;SDS011;67136;47.546;21.630;2023-05-10T07:02:11;3.05;;;2.40;;
77938;SDS011;67136;47.546;21.630;2023-05-10T07:05:27;4.22;;;2.42;;
77938;SDS011;67136;47.546;21.630;2023-05-10T07:08:31;3.57;;;2.57;;
77938;SDS011;67136;47.546;21.630;2023-05-10T07:11:51;4.47;;;2.37;;
77938;SDS011;67136;47.546;21.630;2023-05-10T07:15:12;3.92;;;2.37;;
77938;SDS011;67136;47.546;21.630;2023-05-10T07:18:38;4.57;;;2.65;;
77938;SDS011;67136;47.546;21.630;2023-05-10T07:22:04;5.47;;;2.50;;
77938;SDS011;67136;47.546;21.630;2023-05-10T07:25:23;3.97;;;2.00;;
77938;SDS011;67136;47.546;21.630;2023-05-10T07:28:51;6.50;;;2.30;;
77938;SDS011;67136;47.546;21.630;2023-05-10T07:32:09;6.28;;;2.72;;
77938;SDS011;67136;47.546;21.630;2023-05-10T07:35:28;4.40;;;2.10;;
77938;SDS011;67136;47.546;21.630;2023-05-10T07:38:45;4.28;;;2.42;;
77938;SDS011;67136;47.546;21.630;2023-05-10T07:42:07;4.63;;;2.50;;
77938;SDS011;67136;47.546;21.630;2023-05-10T07:45:18;6.18;;;2.40;;
77938;SDS011;67136;47.546;21.630;2023-05-10T07:48:25;3.53;;;2.30;;
77938;SDS011;67136;47.546;21.630;2023-05-10T07:51:42;4.55;;;2.70;;
77938;SDS011;67136;47.546;21.630;2023-05-10T07:55:01;5.07;;;2.45;;
77938;SDS011;67136;47.546;21.630;2023-05-10T07:58:14;2.53;;;1.90;;
77938;SDS011;67136;47.546;21.630;2023-05-10T08:01:34;3.72;;;2.40;;
77938;SDS011;67136;47.546;21.630;2023-05-10T08:05:02;4.10;;;2.40;;
77938;SDS011;67136;47.546;21.630;2023-05-10T08:08:23;2.20;;;1.65;;
77938;SDS011;67136;47.546;21.630;2023-05-10T08:11:47;6.25;;;1.90;;
77938;SDS011;67136;47.546;21.630;2023-05-10T08:15:03;3.50;;;2.00;;
77938;SDS011;67136;47.546;21.630;2023-05-10T08:18:28;4.00;;;1.98;;
77938;SDS011;67136;47.546;21.630;2023-05-10T08:21:39;3.22;;;2.10;;
77938;SDS011;67136;47.546;21.630;2023-05-10T08:24:58;2.30;;;1.52;;
77938;SDS011;67136;47.546;21.630;2023-05-10T08:28:18;2.72;;;1.67;;
77938;SDS011;67136;47.546;21.630;2023-05-10T08:31:46;41.33;;;4.17;;
77938;SDS011;67136;47.546;21.630;2023-05-10T08:34:51;7.55;;;2.10;;
77938;SDS011;67136;47.546;21.630;2023-05-10T08:38:26;3.25;;;1.77;;
77938;SDS011;67136;47.546;21.630;2023-05-10T08:42:02;2.80;;;1.95;;
77938;SDS011;67136;47.546;21.630;2023-05-10T08:45:21;7.53;;;1.80;;
77938;SDS011;67136;47.546;21.630;2023-05-10T08:48:31;2.23;;;1.60;;
77938;SDS011;67136;47.546;21.630;2023-05-10T08:51:49;3.72;;;1.83;;
77938;SDS011;67136;47.546;21.630;2023-05-10T08:55:30;2.55;;;1.77;;
77938;SDS011;67136;47.546;21.630;2023-05-10T08:58:58;3.22;;;1.80;;
77938;SDS011;67136;47.546;21.630;2023-05-10T09:02:52;3.28;;;1.70;;
77938;SDS011;67136;47.546;21.630;2023-05-10T09:06:20;2.70;;;1.83;;
77938;SDS011;67136;47.546;21.630;2023-05-10T09:09:25;4.22;;;2.22;;
77938;SDS011;67136;47.546;21.630;2023-05-10T09:12:54;4.43;;;1.67;;
77938;SDS011;67136;47.546;21.630;2023-05-10T09:16:14;4.28;;;1.80;;
77938;SDS011;67136;47.546;21.630;2023-05-10T09:19:27;2.20;;;1.60;;
77938;SDS011;67136;47.546;21.630;2023-05-10T09:23:00;2.17;;;1.53;;
77938;SDS011;67136;47.546;21.630;2023-05-10T09:26:16;2.35;;;1.70;;
77938;SDS011;67136;47.546;21.630;2023-05-10T09:29:42;2.12;;;1.50;;
77938;SDS011;67136;47.546;21.630;2023-05-10T09:32:45;3.17;;;1.80;;
77938;SDS011;67136;47.546;21.630;2023-05-10T09:35:52;3.67;;;1.67;;
77938;SDS011;67136;47.546;21.630;2023-05-10T09:39:14;3.13;;;1.50;;
77938;SDS011;67136;47.546;21.630;2023-05-10T09:42:19;1.70;;;1.30;;
77938;SDS011;67136;47.546;21.630;2023-05-10T09:45:25;2.87;;;1.30;;
77938;SDS011;67136;47.546;21.630;2023-05-10T09:48:41;2.50;;;1.10;;
77938;SDS011;67136;47.546;21.630;2023-05-10T09:52:03;2.08;;;1.15;;
77938;SDS011;67136;47.546;21.630;2023-05-10T09:55:08;1.67;;;1.10;;
77938;SDS011;67136;47.546;21.630;2023-05-10T09:58:21;1.77;;;1.40;;
77938;SDS011;67136;47.546;21.630;2023-05-10T10:01:27;2.22;;;1.60;;
77938;SDS011;67136;47.546;21.630;2023-05-10T10:04:31;2.70;;;1.37;;
77938;SDS011;67136;47.546;21.630;2023-05-10T10:07:39;2.05;;;1.50;;
77938;SDS011;67136;47.546;21.630;2023-05-10T10:10:45;3.00;;;1.57;;
77938;SDS011;67136;47.546;21.630;2023-05-10T10:13:51;2.03;;;1.55;;
77938;SDS011;67136;47.546;21.630;2023-05-10T10:16:56;3.53;;;1.42;;
77938;SDS011;67136;47.546;21.630;2023-05-10T10:20:11;2.62;;;1.25;;
77938;SDS011;67136;47.546;21.630;2023-05-10T10:23:17;3.22;;;1.48;;
77938;SDS011;67136;47.546;21.630;2023-05-10T10:26:20;2.20;;;1.30;;
77938;SDS011;67136;47.546;21.630;2023-05-10T10:29:39;2.47;;;1.55;;
77938;SDS011;67136;47.546;21.630;2023-05-10T10:36:01;2.22;;;1.50;;
77938;SDS011;67136;47.546;21.630;2023-05-10T10:39:08;1.65;;;1.40;;
77938;SDS011;67136;47.546;21.630;2023-05-10T10:46:12;3.97;;;1.45;;
77938;SDS011;67136;47.546;21.630;2023-05-10T10:53:21;2.60;;;1.35;;
77938;SDS011;67136;47.546;21.630;2023-05-10T10:56:26;3.40;;;1.12;;
77938;SDS011;67136;47.546;21.630;2023-05-10T10:59:29;2.10;;;1.20;;
77938;SDS011;67136;47.546;21.630;2023-05-10T11:02:52;3.40;;;1.30;;
77938;SDS011;67136;47.546;21.630;2023-05-10T11:06:02;2.17;;;1.40;;
77938;SDS011;67136;47.546;21.630;2023-05-10T11:09:09;2.70;;;1.40;;
77938;SDS011;67136;47.546;21.630;2023-05-10T11:12:14;3.30;;;1.58;;
77938;SDS011;67136;47.546;21.630;2023-05-10T11:15:28;1.73;;;1.40;;
77938;SDS011;67136;47.546;21.630;2023-05-10T11:18:36;3.40;;;1.40;;
77938;SDS011;67136;47.546;21.630;2023-05-10T11:21:47;1.87;;;1.00;;
77938;SDS011;67136;47.546;21.630;2023-05-10T11:25:02;3.65;;;1.20;;
77938;SDS011;67136;47.546;21.630;2023-05-10T11:28:11;2.72;;;1.30;;
77938;SDS011;67136;47.546;21.630;2023-05-10T11:31:19;2.00;;;1.10;;
77938;SDS011;67136;47.546;21.630;2023-05-10T11:34:26;2.78;;;1.20;;
77938;SDS011;67136;47.546;21.630;2023-05-10T11:37:47;2.00;;;1.30;;
77938;SDS011;67136;47.546;21.630;2023-05-10T11:41:08;2.30;;;1.20;;
77938;SDS011;67136;47.546;21.630;2023-05-10T11:44:14;2.62;;;1.10;;
77938;SDS011;67136;47.546;21.630;2023-05-10T11:47:23;3.13;;;1.20;;
77938;SDS011;67136;47.546;21.630;2023-05-10T11:50:27;1.95;;;1.12;;
77938;SDS011;67136;47.546;21.630;2023-05-10T11:53:41;3.00;;;1.27;;
77938;SDS011;67136;47.546;21.630;2023-05-10T11:56:49;1.42;;;1.20;;
77938;SDS011;67136;47.546;21.630;2023-05-10T11:59:56;2.33;;;1.27;;
77938;SDS011;67136;47.546;21.630;2023-05-10T12:03:01;3.60;;;1.40;;
77938;SDS011;67136;47.546;21.630;2023-05-10T12:06:08;1.83;;;1.10;;
77938;SDS011;67136;47.546;21.630;2023-05-10T12:09:11;2.85;;;1.10;;
77938;SDS011;67136;47.546;21.630;2023-05-10T12:12:21;4.18;;;1.02;;
77938;SDS011;67136;47.546;21.630;2023-05-10T12:15:42;2.58;;;1.12;;
77938;SDS011;67136;47.546;21.630;2023-05-10T12:18:53;1.93;;;1.20;;
77938;SDS011;67136;47.546;21.630;2023-05-10T12:22:07;2.92;;;1.08;;
77938;SDS011;67136;47.546;21.630;2023-05-10T12:25:10;1.67;;;1.20;;
77938;SDS011;67136;47.546;21.630;2023-05-10T12:28:18;2.90;;;1.30;;
77938;SDS011;67136;47.546;21.630;2023-05-10T12:31:33;3.25;;;1.67;;
77938;SDS011;67136;47.546;21.630;2023-05-10T12:35:00;3.33;;;1.17;;
77938;SDS011;67136;47.546;21.630;2023-05-10T12:38:32;1.27;;;1.10;;
77938;SDS011;67136;47.546;21.630;2023-05-10T12:41:38;3.47;;;1.15;;
77938;SDS011;67136;47.546;21.630;2023-05-10T12:44:57;1.92;;;1.10;;
77938;SDS011;67136;47.546;21.630;2023-05-10T12:48:02;2.10;;;1.45;;
77938;SDS011;67136;47.546;21.630;2023-05-10T12:51:08;3.33;;;1.00;;
77938;SDS011;67136;47.546;21.630;2023-05-10T12:54:17;11.43;;;1.48;;
77938;SDS011;67136;47.546;21.630;2023-05-10T12:57:27;1.37;;;1.12;;
77938;SDS011;67136;47.546;21.630;2023-05-10T13:00:36;3.00;;;1.10;;
77938;SDS011;67136;47.546;21.630;2023-05-10T13:03:42;2.10;;;1.20;;
77938;SDS011;67136;47.546;21.630;2023-05-10T13:06:53;2.33;;;1.20;;
77938;SDS011;67136;47.546;21.630;2023-05-10T13:10:12;1.33;;;1.00;;
77938;SDS011;67136;47.546;21.630;2023-05-10T13:13:25;2.92;;;1.08;;
77938;SDS011;67136;47.546;21.630;2023-05-10T13:16:37;2.85;;;1.10;;
77938;SDS011;67136;47.546;21.630;2023-05-10T13:19:45;4.78;;;1.05;;
77938;SDS011;67136;47.546;21.630;2023-05-10T13:22:53;2.47;;;1.10;;
77938;SDS011;67136;47.546;21.630;2023-05-10T13:26:06;2.03;;;1.20;;
77938;SDS011;67136;47.546;21.630;2023-05-10T13:32:37;2.12;;;0.90;;
77938;SDS011;67136;47.546;21.630;2023-05-10T13:35:45;4.60;;;1.30;;
77938;SDS011;67136;47.546;21.630;2023-05-10T13:39:03;1.10;;;0.80;;
77938;SDS011;67136;47.546;21.630;2023-05-10T13:42:24;1.62;;;1.08;;
77938;SDS011;67136;47.546;21.630;2023-05-10T13:45:35;2.00;;;0.80;;
77938;SDS011;67136;47.546;21.630;2023-05-10T13:48:56;3.08;;;1.10;;
77938;SDS011;67136;47.546;21.630;2023-05-10T13:52:05;2.70;;;1.08;;
77938;SDS011;67136;47.546;21.630;2023-05-10T13:55:21;1.80;;;1.00;;
77938;SDS011;67136;47.546;21.630;2023-05-10T13:58:27;3.45;;;0.90;;
77938;SDS011;67136;47.546;21.630;2023-05-10T14:01:36;2.95;;;0.98;;
77938;SDS011;67136;47.546;21.630;2023-05-10T14:04:41;2.97;;;1.12;;
77938;SDS011;67136;47.546;21.630;2023-05-10T14:07:46;1.87;;;1.00;;
77938;SDS011;67136;47.546;21.630;2023-05-10T14:10:54;6.57;;;1.20;;
77938;SDS011;67136;47.546;21.630;2023-05-10T14:14:03;5.18;;;1.48;;
77938;SDS011;67136;47.546;21.630;2023-05-10T14:17:08;3.87;;;1.08;;
77938;SDS011;67136;47.546;21.630;2023-05-10T14:20:18;3.15;;;1.10;;
77938;SDS011;67136;47.546;21.630;2023-05-10T14:23:24;3.08;;;1.00;;
77938;SDS011;67136;47.546;21.630;2023-05-10T14:26:29;2.60;;;1.00;;
77938;SDS011;67136;47.546;21.630;2023-05-10T14:29:47;2.60;;;0.82;;
77938;SDS011;67136;47.546;21.630;2023-05-10T14:32:57;5.78;;;1.02;;
77938;SDS011;67136;47.546;21.630;2023-05-10T14:36:06;3.50;;;1.08;;
77938;SDS011;67136;47.546;21.630;2023-05-10T14:39:18;1.45;;;0.95;;
77938;SDS011;67136;47.546;21.630;2023-05-10T14:42:31;4.17;;;1.20;;
77938;SDS011;67136;47.546;21.630;2023-05-10T14:45:38;2.47;;;0.90;;
77938;SDS011;67136;47.546;21.630;2023-05-10T14:48:49;1.65;;;1.15;;
77938;SDS011;67136;47.546;21.630;2023-05-10T14:55:32;1.87;;;0.98;;
77938;SDS011;67136;47.546;21.630;2023-05-10T14:58:45;3.10;;;1.00;;
77938;SDS011;67136;47.546;21.630;2023-05-10T15:01:56;1.98;;;1.00;;
77938;SDS011;67136;47.546;21.630;2023-05-10T15:05:16;1.52;;;1.12;;
77938;SDS011;67136;47.546;21.630;2023-05-10T15:08:22;3.35;;;1.10;;
77938;SDS011;67136;47.546;21.630;2023-05-10T15:11:34;4.68;;;1.17;;
77938;SDS011;67136;47.546;21.630;2023-05-10T15:14:45;1.87;;;1.10;;
77938;SDS011;67136;47.546;21.630;2023-05-10T15:17:50;1.30;;;1.05;;
77938;SDS011;67136;47.546;21.630;2023-05-10T15:21:01;3.75;;;1.30;;
77938;SDS011;67136;47.546;21.630;2023-05-10T15:24:09;1.98;;;0.93;;
77938;SDS011;67136;47.546;21.630;2023-05-10T15:27:30;1.77;;;0.90;;
77938;SDS011;67136;47.546;21.630;2023-05-10T15:30:43;0.97;;;0.87;;
77938;SDS011;67136;47.546;21.630;2023-05-10T15:34:06;2.50;;;1.10;;
77938;SDS011;67136;47.546;21.630;2023-05-10T15:37:10;3.15;;;1.10;;
77938;SDS011;67136;47.546;21.630;2023-05-10T15:40:20;2.80;;;1.08;;
77938;SDS011;67136;47.546;21.630;2023-05-10T15:43:25;1.45;;;1.05;;
77938;SDS011;67136;47.546;21.630;2023-05-10T15:46:29;1.27;;;0.90;;
77938;SDS011;67136;47.546;21.630;2023-05-10T15:49:45;2.20;;;1.02;;
77938;SDS011;67136;47.546;21.630;2023-05-10T15:52:51;1.55;;;0.93;;
77938;SDS011;67136;47.546;21.630;2023-05-10T15:56:02;3.37;;;1.00;;
77938;SDS011;67136;47.546;21.630;2023-05-10T15:59:18;6.87;;;0.93;;
77938;SDS011;67136;47.546;21.630;2023-05-10T16:02:35;1.00;;;0.70;;
77938;SDS011;67136;47.546;21.630;2023-05-10T16:05:45;1.65;;;0.90;;
77938;SDS011;67136;47.546;21.630;2023-05-10T16:09:20;1.48;;;0.85;;
77938;SDS011;67136;47.546;21.630;2023-05-10T16:12:33;5.62;;;1.00;;
77938;SDS011;67136;47.546;21.630;2023-05-10T16:15:44;1.60;;;1.00;;
77938;SDS011;67136;47.546;21.630;2023-05-10T16:18:53;3.20;;;1.20;;
77938;SDS011;67136;47.546;21.630;2023-05-10T16:22:08;2.42;;;1.17;;
77938;SDS011;67136;47.546;21.630;2023-05-10T16:25:30;1.52;;;0.90;;
77938;SDS011;67136;47.546;21.630;2023-05-10T16:28:54;4.70;;;1.20;;
77938;SDS011;67136;47.546;21.630;2023-05-10T16:32:03;5.10;;;0.90;;
77938;SDS011;67136;47.546;21.630;2023-05-10T16:35:16;2.53;;;1.00;;
77938;SDS011;67136;47.546;21.630;2023-05-10T16:38:36;1.73;;;1.10;;
77938;SDS011;67136;47.546;21.630;2023-05-10T16:41:41;1.73;;;1.30;;
77938;SDS011;67136;47.546;21.630;2023-05-10T16:44:49;2.58;;;1.10;;
77938;SDS011;67136;47.546;21.630;2023-05-10T16:48:02;2.10;;;1.10;;
77938;SDS011;67136;47.546;21.630;2023-05-10T16:51:25;2.53;;;1.17;;
77938;SDS011;67136;47.546;21.630;2023-05-10T16:54:31;1.67;;;0.93;;
77938;SDS011;67136;47.546;21.630;2023-05-10T16:57:38;2.15;;;1.10;;
77938;SDS011;67136;47.546;21.630;2023-05-10T17:00:55;3.42;;;1.15;;
77938;SDS011;67136;47.546;21.630;2023-05-10T17:04:01;2.42;;;1.08;;
77938;SDS011;67136;47.546;21.630;2023-05-10T17:07:08;3.43;;;1.13;;
77938;SDS011;67136;47.546;21.630;2023-05-10T17:10:21;1.77;;;1.17;;
77938;SDS011;67136;47.546;21.630;2023-05-10T17:13:29;5.05;;;1.30;;
77938;SDS011;67136;47.546;21.630;2023-05-10T17:16:48;2.53;;;0.93;;
77938;SDS011;67136;47.546;21.630;2023-05-10T17:19:59;3.53;;;1.08;;
77938;SDS011;67136;47.546;21.630;2023-05-10T17:23:08;5.67;;;1.10;;
77938;SDS011;67136;47.546;21.630;2023-05-10T17:26:14;4.12;;;1.37;;
77938;SDS011;67136;47.546;21.630;2023-05-10T17:29:26;3.85;;;1.12;;
77938;SDS011;67136;47.546;21.630;2023-05-10T17:32:33;7.43;;;1.35;;
77938;SDS011;67136;47.546;21.630;2023-05-10T17:35:51;1.98;;;1.27;;
77938;SDS011;67136;47.546;21.630;2023-05-10T17:38:57;2.63;;;1.30;;
77938;SDS011;67136;47.546;21.630;2023-05-10T17:42:07;3.60;;;1.25;;
77938;SDS011;67136;47.546;21.630;2023-05-10T17:45:24;2.58;;;1.20;;
77938;SDS011;67136;47.546;21.630;2023-05-10T17:48:28;3.92;;;1.20;;
77938;SDS011;67136;47.546;21.630;2023-05-10T17:51:35;2.77;;;1.30;;
77938;SDS011;67136;47.546;21.630;2023-05-10T17:54:40;3.80;;;1.40;;
77938;SDS011;67136;47.546;21.630;2023-05-10T17:57:45;2.25;;;1.33;;
77938;SDS011;67136;47.546;21.630;2023-05-10T18:00:55;3.10;;;1.60;;
77938;SDS011;67136;47.546;21.630;2023-05-10T18:04:07;6.70;;;1.52;;
77938;SDS011;67136;47.546;21.630;2023-05-10T18:07:17;2.83;;;1.30;;
77938;SDS011;67136;47.546;21.630;2023-05-10T18:10:34;4.03;;;1.50;;
77938;SDS011;67136;47.546;21.630;2023-05-10T18:13:39;3.35;;;1.48;;
77938;SDS011;67136;47.546;21.630;2023-05-10T18:16:53;3.55;;;1.75;;
77938;SDS011;67136;47.546;21.630;2023-05-10T18:20:04;4.15;;;1.65;;
77938;SDS011;67136;47.546;21.630;2023-05-10T18:23:23;9.13;;;2.00;;
77938;SDS011;67136;47.546;21.630;2023-05-10T18:26:49;5.93;;;2.17;;
77938;SDS011;67136;47.546;21.630;2023-05-10T18:30:01;6.45;;;1.60;;
77938;SDS011;67136;47.546;21.630;2023-05-10T18:33:05;8.13;;;1.85;;
77938;SDS011;67136;47.546;21.630;2023-05-10T18:36:10;3.30;;;1.77;;
77938;SDS011;67136;47.546;21.630;2023-05-10T18:39:20;3.37;;;2.00;;
77938;SDS011;67136;47.546;21.630;2023-05-10T18:42:55;5.87;;;2.43;;
77938;SDS011;67136;47.546;21.630;2023-05-10T18:46:29;5.30;;;2.40;;
77938;SDS011;67136;47.546;21.630;2023-05-10T18:49:34;7.90;;;3.65;;
77938;SDS011;67136;47.546;21.630;2023-05-10T18:52:37;9.32;;;4.00;;
77938;SDS011;67136;47.546;21.630;2023-05-10T18:55:57;5.67;;;3.30;;
77938;SDS011;67136;47.546;21.630;2023-05-10T18:59:20;9.60;;;2.93;;
77938;SDS011;67136;47.546;21.630;2023-05-10T19:02:30;7.35;;;3.10;;
77938;SDS011;67136;47.546;21.630;2023-05-10T19:05:42;4.50;;;2.85;;
77938;SDS011;67136;47.546;21.630;2023-05-10T19:08:54;3.85;;;2.72;;
77938;SDS011;67136;47.546;21.630;2023-05-10T19:12:07;6.07;;;2.90;;
77938;SDS011;67136;47.546;21.630;2023-05-10T19:15:12;7.30;;;2.90;;
77938;SDS011;67136;47.546;21.630;2023-05-10T19:18:19;5.75;;;2.90;;
77938;SDS011;67136;47.546;21.630;2023-05-10T19:21:45;7.57;;;2.70;;
77938;SDS011;67136;47.546;21.630;2023-05-10T19:25:14;4.75;;;2.40;;
77938;SDS011;67136;47.546;21.630;2023-05-10T19:28:30;9.27;;;2.80;;
77938;SDS011;67136;47.546;21.630;2023-05-10T19:31:39;8.93;;;4.40;;
77938;SDS011;67136;47.546;21.630;2023-05-10T19:34:55;9.68;;;4.28;;
77938;SDS011;67136;47.546;21.630;2023-05-10T19:38:30;6.57;;;3.47;;
77938;SDS011;67136;47.546;21.630;2023-05-10T19:41:54;5.12;;;2.90;;
77938;SDS011;67136;47.546;21.630;2023-05-10T19:45:10;4.73;;;2.67;;
77938;SDS011;67136;47.546;21.630;2023-05-10T19:48:29;3.60;;;2.43;;
77938;SDS011;67136;47.546;21.630;2023-05-10T19:51:35;3.47;;;2.30;;
77938;SDS011;67136;47.546;21.630;2023-05-10T19:54:53;5.05;;;2.40;;
77938;SDS011;67136;47.546;21.630;2023-05-10T19:58:01;3.62;;;2.20;;
77938;SDS011;67136;47.546;21.630;2023-05-10T20:01:21;4.00;;;2.07;;
77938;SDS011;67136;47.546;21.630;2023-05-10T20:04:34;3.93;;;2.20;;
77938;SDS011;67136;47.546;21.630;2023-05-10T20:07:58;4.70;;;2.58;;
77938;SDS011;67136;47.546;21.630;2023-05-10T20:11:11;4.53;;;2.60;;
77938;SDS011;67136;47.546;21.630;2023-05-10T20:14:18;5.78;;;2.17;;
77938;SDS011;67136;47.546;21.630;2023-05-10T20:17:49;5.20;;;2.40;;
77938;SDS011;67136;47.546;21.630;2023-05-10T20:21:09;4.43;;;2.27;;
77938;SDS011;67136;47.546;21.630;2023-05-10T20:24:13;4.50;;;2.55;;
77938;SDS011;67136;47.546;21.630;2023-05-10T20:27:29;4.55;;;2.30;;
77938;SDS011;67136;47.546;21.630;2023-05-10T20:30:36;6.12;;;2.40;;
77938;SDS011;67136;47.546;21.630;2023-05-10T20:33:48;6.13;;;2.47;;
77938;SDS011;67136;47.546;21.630;2023-05-10T20:37:24;5.77;;;2.77;;
77938;SDS011;67136;47.546;21.630;2023-05-10T20:40:52;7.20;;;2.35;;